createdAt,value
2022-08-16T00:01:34.213Z,92.60
2022-08-16T00:04:10.362Z,88.60
2022-08-16T00:06:41.204Z,89.35
2022-08-16T00:09:14.222Z,93.78
2022-08-16T00:11:46.257Z,83.85
2022-08-16T00:14:19.366Z,92.85
2022-08-16T00:17:06.714Z,82.03
2022-08-16T00:22:15.184Z,61.13
2022-08-16T00:24:46.953Z,70.30
2022-08-16T00:27:19.966Z,73.38
2022-08-16T00:30:08.946Z,85.53
2022-08-16T00:32:43.488Z,68.82
2022-08-16T00:35:20.466Z,77.90
2022-08-16T00:37:58.717Z,88.93
2022-08-16T00:40:36.724Z,73.75
2022-08-16T00:43:12.178Z,87.68
2022-08-16T00:46:32.929Z,72.47
2022-08-16T00:51:29.439Z,44.58
2022-08-16T00:54:00.677Z,59.47
2022-08-16T00:56:57.674Z,74.28
2022-08-16T00:59:28.708Z,70.45
2022-08-16T01:02:00.963Z,68.70
2022-08-16T01:05:09.619Z,69.32
2022-08-16T01:07:51.834Z,71.07
2022-08-16T01:10:32.949Z,79.75
2022-08-16T01:13:12.117Z,72.10
2022-08-16T01:15:53.638Z,71.70
2022-08-16T01:18:40.477Z,68.50
2022-08-16T01:21:33.570Z,80.88
2022-08-16T01:24:52.369Z,73.50
2022-08-16T01:27:21.984Z,84.25
2022-08-16T01:30:00.383Z,86.30
2022-08-16T01:32:38.747Z,75.18
2022-08-16T01:35:17.512Z,80.53
2022-08-16T01:37:54.787Z,71.63
2022-08-16T01:40:34.673Z,85.20
2022-08-16T01:43:06.331Z,71.57
2022-08-16T01:45:41.415Z,76.00
2022-08-16T01:48:19.693Z,80.95
2022-08-16T01:51:08.812Z,73.38
2022-08-16T01:53:43.068Z,75.15
2022-08-16T01:56:24.432Z,78.28
2022-08-16T01:58:59.508Z,59.72
2022-08-16T02:01:31.978Z,72.10
2022-08-16T02:04:10.384Z,70.43
2022-08-16T02:06:46.040Z,74.90
2022-08-16T02:09:21.531Z,93.32
2022-08-16T02:11:57.800Z,110.32
2022-08-16T02:14:33.245Z,67.05
2022-08-16T02:17:07.532Z,69.85
2022-08-16T02:19:59.026Z,68.40
2022-08-16T02:22:34.735Z,74.75
2022-08-16T02:25:14.710Z,61.42
2022-08-16T02:27:50.801Z,66.43
2022-08-16T02:30:36.631Z,75.60
2022-08-16T02:33:13.237Z,61.70
2022-08-16T02:35:53.690Z,80.10
2022-08-16T02:38:28.782Z,68.13
2022-08-16T02:41:07.333Z,68.65
2022-08-16T02:43:42.111Z,66.07
2022-08-16T02:46:12.302Z,59.47
2022-08-16T02:48:49.171Z,74.40
2022-08-16T02:51:23.358Z,68.97
2022-08-16T02:53:54.470Z,67.75
2022-08-16T02:56:32.076Z,73.88
2022-08-16T02:59:11.311Z,58.55
2022-08-16T03:01:42.705Z,78.55
2022-08-16T03:04:28.910Z,80.35
2022-08-16T03:07:11.728Z,73.13
2022-08-16T03:09:44.821Z,67.22
2022-08-16T03:12:19.359Z,65.75
2022-08-16T03:14:51.584Z,53.10
2022-08-16T03:17:23.256Z,81.60
2022-08-16T03:20:05.791Z,66.63
2022-08-16T03:22:40.486Z,58.08
2022-08-16T03:25:17.663Z,68.07
2022-08-16T03:28:03.165Z,70.50
2022-08-16T03:30:38.995Z,68.80
2022-08-16T03:33:11.100Z,40.42
2022-08-16T03:35:50.885Z,55.22
2022-08-16T03:38:35.251Z,59.88
2022-08-16T03:41:24.170Z,56.65
2022-08-16T03:43:57.034Z,57.60
2022-08-16T03:46:47.311Z,54.97
2022-08-16T03:49:23.705Z,60.17
2022-08-16T03:52:07.674Z,54.45
2022-08-16T03:54:39.006Z,62.05
2022-08-16T03:57:23.907Z,62.75
2022-08-16T04:00:00.997Z,87.07
2022-08-16T04:02:46.245Z,49.47
2022-08-16T04:05:20.018Z,46.80
2022-08-16T04:07:52.505Z,52.80
2022-08-16T04:10:36.282Z,52.92
2022-08-16T04:13:06.740Z,53.88
2022-08-16T04:15:52.833Z,43.53
2022-08-16T04:18:27.868Z,64.55
2022-08-16T04:21:00.119Z,58.28
2022-08-16T04:23:33.325Z,60.67
2022-08-16T04:26:02.606Z,66.18
2022-08-16T04:31:24.834Z,29.80
2022-08-16T04:33:59.332Z,46.97
2022-08-16T04:36:29.347Z,36.80
2022-08-16T04:38:59.066Z,50.65
2022-08-16T04:41:37.285Z,50.35
2022-08-16T04:44:32.993Z,41.95
2022-08-16T04:47:03.310Z,45.05
2022-08-16T04:49:52.300Z,64.63
2022-08-16T04:52:34.875Z,72.70
2022-08-16T04:55:11.904Z,42.47
2022-08-16T04:57:43.967Z,46.92
2022-08-16T05:00:31.917Z,50.03
2022-08-16T05:03:15.972Z,44.25
2022-08-16T05:05:59.205Z,56.70
2022-08-16T05:08:32.014Z,41.30
2022-08-16T05:11:20.370Z,46.95
2022-08-16T05:13:51.775Z,39.00
2022-08-16T05:16:30.119Z,40.75
2022-08-16T05:19:16.380Z,43.97
2022-08-16T05:22:07.300Z,49.00
2022-08-16T05:24:49.479Z,46.45
2022-08-16T05:27:24.435Z,48.95
2022-08-16T05:29:57.089Z,85.22
2022-08-16T05:32:34.277Z,59.95
2022-08-16T05:35:12.516Z,50.53
2022-08-16T05:37:52.046Z,44.97
2022-08-16T05:40:22.579Z,53.60
2022-08-16T05:42:52.236Z,41.58
2022-08-16T05:45:25.498Z,43.38
2022-08-16T05:47:59.410Z,48.55
2022-08-16T05:50:34.765Z,58.63
2022-08-16T05:53:07.083Z,46.42
2022-08-16T05:55:47.445Z,38.78
2022-08-16T05:58:31.697Z,47.05
2022-08-16T06:01:03.241Z,43.97
2022-08-16T06:03:34.287Z,60.72
2022-08-16T06:06:08.527Z,48.67
2022-08-16T06:08:42.189Z,61.53
2022-08-16T06:11:16.501Z,56.25
2022-08-16T06:13:56.009Z,49.50
2022-08-16T06:16:54.431Z,46.90
2022-08-16T06:19:24.629Z,46.45
2022-08-16T06:22:03.378Z,46.63
2022-08-16T06:24:54.448Z,38.67
2022-08-16T06:27:25.913Z,35.85
2022-08-16T06:30:12.381Z,37.15
2022-08-16T06:32:50.299Z,43.40
2022-08-16T06:35:20.946Z,45.10
2022-08-16T06:37:53.173Z,45.60
2022-08-16T06:40:33.609Z,43.17
2022-08-16T06:43:03.645Z,41.42
2022-08-16T06:45:43.507Z,41.88
2022-08-16T06:48:32.738Z,54.05
2022-08-16T06:51:06.205Z,48.17
2022-08-16T06:53:36.925Z,52.15
2022-08-16T06:56:14.450Z,61.30
2022-08-16T06:59:01.161Z,106.45
2022-08-16T07:01:44.531Z,51.25
2022-08-16T07:04:31.873Z,43.00
2022-08-16T07:07:09.873Z,46.22
2022-08-16T07:09:41.105Z,58.47
2022-08-16T07:12:12.723Z,45.55
2022-08-16T07:14:47.939Z,50.20
2022-08-16T07:17:21.621Z,57.38
2022-08-16T07:20:02.747Z,43.78
2022-08-16T07:22:43.654Z,47.58
2022-08-16T07:25:30.401Z,45.13
2022-08-16T07:28:01.795Z,73.63
2022-08-16T07:30:45.875Z,90.93
2022-08-16T07:33:52.173Z,38.88
2022-08-16T07:36:28.985Z,49.67
2022-08-16T07:39:00.665Z,43.63
2022-08-16T07:41:35.879Z,50.85
2022-08-16T07:44:16.188Z,56.55
2022-08-16T07:46:56.256Z,54.58
2022-08-16T07:49:32.300Z,63.47
2022-08-16T07:52:18.654Z,52.90
2022-08-16T07:54:53.257Z,57.63
2022-08-16T07:57:24.485Z,52.08
2022-08-16T07:59:57.508Z,83.80
2022-08-16T08:02:28.298Z,67.78
2022-08-16T08:05:03.462Z,58.92
2022-08-16T08:07:33.365Z,58.72
2022-08-16T08:10:11.035Z,73.07
2022-08-16T08:12:41.959Z,66.72
2022-08-16T08:15:25.357Z,86.07
2022-08-16T08:18:00.676Z,69.38
2022-08-16T08:20:47.479Z,52.95
2022-08-16T08:23:30.558Z,54.17
2022-08-16T08:26:00.681Z,61.60
2022-08-16T08:28:32.457Z,62.40
2022-08-16T08:31:08.529Z,119.93
2022-08-16T08:33:43.884Z,63.05
2022-08-16T08:36:24.899Z,69.18
2022-08-16T08:39:12.945Z,63.20
2022-08-16T08:41:46.418Z,62.25
2022-08-16T08:44:28.803Z,57.60
2022-08-16T08:47:11.591Z,55.50
2022-08-16T08:49:46.514Z,66.63
2022-08-16T08:52:34.603Z,61.15
2022-08-16T08:55:10.973Z,64.22
2022-08-16T08:57:50.880Z,57.80
2022-08-16T09:00:30.361Z,52.40
2022-08-16T09:03:05.801Z,46.00
2022-08-16T09:05:43.047Z,59.90
2022-08-16T09:08:14.036Z,70.82
2022-08-16T09:11:01.907Z,51.97
2022-08-16T09:13:34.212Z,70.90
2022-08-16T09:16:07.181Z,46.75
2022-08-16T09:18:49.518Z,60.90
2022-08-16T09:21:31.437Z,72.22
2022-08-16T09:24:02.793Z,65.38
2022-08-16T09:26:45.856Z,63.38
2022-08-16T09:29:24.116Z,64.43
2022-08-16T09:32:08.684Z,53.75
2022-08-16T09:34:41.858Z,59.40
2022-08-16T09:37:18.032Z,66.22
2022-08-16T09:39:50.409Z,68.03
2022-08-16T09:42:21.940Z,61.75
2022-08-16T09:45:10.571Z,65.70
2022-08-16T09:47:56.675Z,53.03
2022-08-16T09:50:37.235Z,64.65
2022-08-16T09:53:16.934Z,78.75
2022-08-16T09:55:53.990Z,57.08
2022-08-16T09:58:37.875Z,55.03
2022-08-16T10:01:14.536Z,102.45
2022-08-16T10:04:02.137Z,108.63
2022-08-16T10:06:35.254Z,61.97
2022-08-16T10:09:08.304Z,77.53
2022-08-16T10:11:56.485Z,56.75
2022-08-16T10:17:15.827Z,66.53
2022-08-16T10:19:47.190Z,53.78
2022-08-16T10:22:22.917Z,59.90
2022-08-16T10:24:55.998Z,54.25
2022-08-16T10:27:29.824Z,54.35
2022-08-16T10:30:25.720Z,57.10
2022-08-16T10:32:58.542Z,54.22
2022-08-16T10:35:32.762Z,57.08
2022-08-16T10:38:06.767Z,58.10
2022-08-16T10:40:39.131Z,80.30
2022-08-16T10:43:16.858Z,58.45
2022-08-16T10:48:31.144Z,41.33
2022-08-16T10:51:01.026Z,54.15
2022-08-16T10:53:33.925Z,60.88
2022-08-16T10:56:51.491Z,49.53
2022-08-16T10:59:38.480Z,53.97
2022-08-16T11:13:57.235Z,44.20
2022-08-16T11:19:06.120Z,50.00
2022-08-16T11:24:41.409Z,51.25
2022-08-16T11:27:20.107Z,46.45
2022-08-16T11:29:53.077Z,55.67
2022-08-16T11:32:29.863Z,50.40
2022-08-16T11:35:13.419Z,49.13
2022-08-16T11:40:44.717Z,47.22
2022-08-16T11:43:17.118Z,57.60
2022-08-16T11:45:54.290Z,65.88
2022-08-16T11:48:24.972Z,47.67
2022-08-16T11:50:57.618Z,67.05
2022-08-16T11:55:58.219Z,57.75
2022-08-16T11:58:34.081Z,54.83
2022-08-16T12:01:03.543Z,76.95
2022-08-16T12:03:41.783Z,57.97
2022-08-16T12:06:25.391Z,56.83
2022-08-16T12:09:04.317Z,65.18
2022-08-16T12:11:34.179Z,65.60
2022-08-16T12:14:09.329Z,58.67
2022-08-16T12:16:38.732Z,62.40
2022-08-16T12:19:15.350Z,55.17
2022-08-16T12:21:58.816Z,64.03
2022-08-16T12:24:29.896Z,63.67
2022-08-16T12:27:01.360Z,68.03
2022-08-16T12:29:32.356Z,55.80
2022-08-16T12:32:35.921Z,59.03
2022-08-16T12:34:53.135Z,53.28
2022-08-16T12:37:27.541Z,63.45
2022-08-16T12:39:58.035Z,65.05
2022-08-16T12:42:34.448Z,58.00
2022-08-16T12:45:15.168Z,56.88
2022-08-16T12:48:32.622Z,58.78
2022-08-16T12:50:56.895Z,62.63
2022-08-16T12:53:26.896Z,58.33
2022-08-16T12:56:02.222Z,53.28
2022-08-16T12:58:47.338Z,54.38
2022-08-16T13:01:25.763Z,66.97
2022-08-16T13:04:20.214Z,97.40
2022-08-16T13:06:55.928Z,68.78
2022-08-16T13:09:26.698Z,53.70
2022-08-16T13:12:19.322Z,48.22
2022-08-16T13:14:51.414Z,54.30
2022-08-16T13:17:29.793Z,59.13
2022-08-16T13:20:07.621Z,60.20
2022-08-16T13:25:20.841Z,54.60
2022-08-16T13:28:02.368Z,56.00
2022-08-16T13:30:46.741Z,50.83
2022-08-16T13:33:26.157Z,44.90
2022-08-16T13:36:01.707Z,55.10
2022-08-16T13:38:37.734Z,59.50
2022-08-16T13:41:09.009Z,45.25
2022-08-16T13:43:39.819Z,48.90
2022-08-16T13:46:09.774Z,45.88
2022-08-16T13:48:44.560Z,62.20
2022-08-16T13:51:18.058Z,52.40
2022-08-16T13:53:54.608Z,38.88
2022-08-16T13:56:38.101Z,51.15
2022-08-16T13:59:14.311Z,58.20
2022-08-16T14:01:56.003Z,63.55
2022-08-16T14:04:29.741Z,52.72
2022-08-16T14:07:04.438Z,71.57
2022-08-16T14:09:36.570Z,50.70
2022-08-16T14:12:17.619Z,58.67
2022-08-16T14:14:48.544Z,43.92
2022-08-16T14:17:22.523Z,45.83
2022-08-16T14:19:53.769Z,49.45
2022-08-16T14:22:35.861Z,44.67
2022-08-16T14:25:16.666Z,58.58
2022-08-16T14:27:48.747Z,49.55
2022-08-16T14:30:25.050Z,65.47
2022-08-16T14:32:55.623Z,37.30
2022-08-16T14:35:48.591Z,38.20
2022-08-16T14:38:23.541Z,36.45
2022-08-16T14:40:54.786Z,35.70
2022-08-16T14:43:25.329Z,51.45
2022-08-16T14:45:55.655Z,42.00
2022-08-16T14:48:25.786Z,49.95
2022-08-16T14:50:57.840Z,55.17
2022-08-16T14:53:28.067Z,51.05
2022-08-16T14:55:57.781Z,45.67
2022-08-16T14:58:36.596Z,46.38
2022-08-16T15:01:10.005Z,47.83
2022-08-16T15:03:44.455Z,37.88
2022-08-16T15:06:16.465Z,51.53
2022-08-16T15:08:48.109Z,45.35
2022-08-16T15:11:17.789Z,40.05
2022-08-16T15:13:47.429Z,42.67
2022-08-16T15:16:17.192Z,44.75
2022-08-16T15:18:47.472Z,43.63
2022-08-16T15:21:18.154Z,53.28
2022-08-16T15:23:47.617Z,52.38
2022-08-16T15:26:34.687Z,48.92
2022-08-16T15:29:11.017Z,53.53
2022-08-16T15:31:44.644Z,39.58
2022-08-16T15:34:19.109Z,32.72
2022-08-16T15:36:56.937Z,50.83
2022-08-16T15:39:35.542Z,44.92
2022-08-16T15:42:15.705Z,46.42
2022-08-16T15:44:58.577Z,47.38
2022-08-16T15:47:28.700Z,52.40
2022-08-16T15:49:58.115Z,42.92
2022-08-16T15:52:32.939Z,54.22
2022-08-16T15:55:23.861Z,52.28
2022-08-16T15:57:57.934Z,32.97
2022-08-16T16:00:28.014Z,43.08
2022-08-16T16:03:08.393Z,45.55
2022-08-16T16:05:39.649Z,42.10
2022-08-16T16:08:12.860Z,43.60
2022-08-16T16:10:44.720Z,46.55
2022-08-16T16:13:24.703Z,37.80
2022-08-16T16:15:58.264Z,47.70
2022-08-16T16:18:30.089Z,47.85
2022-08-16T16:21:03.280Z,41.15
2022-08-16T16:23:44.835Z,38.65
2022-08-16T16:26:24.891Z,47.25
2022-08-16T16:29:07.953Z,40.17
2022-08-16T16:31:40.559Z,44.28
2022-08-16T16:34:10.081Z,39.78
2022-08-16T16:36:48.312Z,41.92
2022-08-16T16:39:19.336Z,47.78
2022-08-16T16:41:48.642Z,45.95
2022-08-16T16:44:31.769Z,47.83
2022-08-16T16:47:03.221Z,46.47
2022-08-16T16:49:33.961Z,47.15
2022-08-16T16:52:07.170Z,51.03
2022-08-16T16:54:38.232Z,49.85
2022-08-16T16:57:27.646Z,44.83
2022-08-16T16:59:56.470Z,54.42
2022-08-16T17:02:46.360Z,50.05
2022-08-16T17:05:15.830Z,50.13
2022-08-16T17:07:47.559Z,45.95
2022-08-16T17:13:08.182Z,48.03
2022-08-16T17:15:37.480Z,50.08
2022-08-16T17:18:06.888Z,38.33
2022-08-16T17:20:56.145Z,47.75
2022-08-16T17:23:57.594Z,37.70
2022-08-16T17:26:17.517Z,38.97
2022-08-16T17:28:58.530Z,71.32
2022-08-16T17:31:40.991Z,51.90
2022-08-16T17:34:28.784Z,46.40
2022-08-16T17:37:04.974Z,57.00
2022-08-16T17:39:56.826Z,52.55
2022-08-16T17:42:27.251Z,51.95
2022-08-16T17:44:56.584Z,55.95
2022-08-16T17:47:26.269Z,51.75
2022-08-16T17:49:55.572Z,59.15
2022-08-16T17:52:24.867Z,87.65
2022-08-16T17:54:54.152Z,49.47
2022-08-16T17:57:23.364Z,53.78
2022-08-16T17:59:54.051Z,38.20
2022-08-16T18:02:53.115Z,47.58
2022-08-16T18:05:16.406Z,54.17
2022-08-16T18:07:46.358Z,38.10
2022-08-16T18:10:31.264Z,46.47
2022-08-16T18:13:03.152Z,45.88
2022-08-16T18:15:34.321Z,48.47
2022-08-16T18:18:03.759Z,97.03
2022-08-16T18:20:50.880Z,65.70
2022-08-16T18:23:23.962Z,52.38
2022-08-16T18:25:58.032Z,47.78
2022-08-16T18:28:29.351Z,45.42
2022-08-16T18:31:03.782Z,52.00
2022-08-16T18:33:43.426Z,45.47
2022-08-16T18:36:21.160Z,59.13
2022-08-16T18:38:51.987Z,51.95
2022-08-16T18:41:23.811Z,45.78
2022-08-16T18:44:23.200Z,44.78
2022-08-16T18:46:50.963Z,67.50
2022-08-16T18:49:21.092Z,49.58
2022-08-16T18:51:51.059Z,45.28
2022-08-16T18:54:20.915Z,45.38
2022-08-16T18:56:57.405Z,55.75
2022-08-16T18:59:33.259Z,62.58
2022-08-16T19:02:05.639Z,46.80
2022-08-16T19:07:30.905Z,62.33
2022-08-16T19:10:02.603Z,57.10
2022-08-16T19:12:37.740Z,45.28
2022-08-16T19:15:16.379Z,47.80
2022-08-16T19:17:47.757Z,52.17
2022-08-16T19:20:21.421Z,44.95
2022-08-16T19:23:10.091Z,50.25
2022-08-16T19:25:47.610Z,58.13
2022-08-16T19:28:51.066Z,57.80
2022-08-16T19:31:17.766Z,97.65
2022-08-16T19:33:54.191Z,64.22
2022-08-16T19:36:32.475Z,59.65
2022-08-16T19:39:06.504Z,65.60
2022-08-16T19:41:37.763Z,58.75
2022-08-16T19:44:08.565Z,71.93
2022-08-16T19:46:38.536Z,88.25
2022-08-16T19:49:09.254Z,78.60
2022-08-16T19:51:38.725Z,73.22
2022-08-16T19:54:07.901Z,78.68
2022-08-16T19:56:37.116Z,67.47
2022-08-16T19:59:39.177Z,63.60
2022-08-16T20:01:55.546Z,70.78
2022-08-16T20:04:26.989Z,69.28
2022-08-16T20:06:56.947Z,71.82
2022-08-16T20:09:27.263Z,76.32
2022-08-16T20:11:59.267Z,127.78
2022-08-16T20:14:30.786Z,76.03
2022-08-16T20:17:01.781Z,75.45
2022-08-16T20:19:39.937Z,68.10
2022-08-16T20:22:49.882Z,79.53
2022-08-16T20:25:17.432Z,70.32
2022-08-16T20:27:46.785Z,73.47
2022-08-16T20:30:17.776Z,64.97
2022-08-16T20:32:48.943Z,60.33
2022-08-16T20:35:25.313Z,81.22
2022-08-16T20:37:56.152Z,85.03
2022-08-16T20:40:35.380Z,77.20
2022-08-16T20:43:10.090Z,76.10
2022-08-16T20:45:42.730Z,69.03
2022-08-16T20:48:12.488Z,74.82
2022-08-16T20:50:43.980Z,73.93
2022-08-16T20:53:13.500Z,69.72
2022-08-16T20:55:45.011Z,77.75
2022-08-16T20:58:14.673Z,72.03
2022-08-16T21:00:45.570Z,83.68
2022-08-16T21:03:17.422Z,80.60
2022-08-16T21:05:48.054Z,78.50
2022-08-16T21:08:50.998Z,91.03
2022-08-16T21:11:08.505Z,67.25
2022-08-16T21:13:42.535Z,86.65
2022-08-16T21:16:13.073Z,72.60
2022-08-16T21:18:42.751Z,72.90
2022-08-16T21:21:19.774Z,53.42
2022-08-16T21:23:52.177Z,56.55
2022-08-16T21:26:21.882Z,69.93
2022-08-16T21:28:53.200Z,56.35
2022-08-16T21:31:24.804Z,69.80
2022-08-16T21:33:56.834Z,70.68
2022-08-16T21:36:34.976Z,51.38
2022-08-16T21:39:07.233Z,53.42
2022-08-16T21:41:38.527Z,53.33
2022-08-16T21:44:08.256Z,51.17
2022-08-16T21:46:37.707Z,41.65
2022-08-16T21:49:06.994Z,48.25
2022-08-16T21:51:37.658Z,45.53
2022-08-16T21:54:07.192Z,39.97
2022-08-16T21:56:36.845Z,45.03
2022-08-16T21:59:11.055Z,45.55
2022-08-16T22:01:42.271Z,48.15
2022-08-16T22:04:37.990Z,54.65
2022-08-16T22:07:05.310Z,42.78
2022-08-16T22:09:34.919Z,46.90
2022-08-16T22:12:04.762Z,46.97
2022-08-16T22:14:34.086Z,49.17
2022-08-16T22:17:03.598Z,39.67
2022-08-16T22:19:32.913Z,46.08
2022-08-16T22:22:02.723Z,25.63
2022-08-16T22:24:33.531Z,49.05
2022-08-16T22:27:03.138Z,48.65
2022-08-16T22:29:32.611Z,46.00
2022-08-16T22:32:04.665Z,50.20
2022-08-16T22:34:34.411Z,47.38
2022-08-16T22:37:03.775Z,43.17
2022-08-16T22:39:34.356Z,42.03
2022-08-16T22:42:08.294Z,43.53
2022-08-16T22:44:45.660Z,56.28
2022-08-16T22:47:19.864Z,39.67
2022-08-16T22:49:51.266Z,38.40
2022-08-16T22:52:55.390Z,40.67
2022-08-16T22:55:12.688Z,38.72
2022-08-16T22:57:41.990Z,42.67
2022-08-16T23:00:16.016Z,35.35
2022-08-16T23:03:00.978Z,37.80
2022-08-16T23:05:35.939Z,40.78
2022-08-16T23:08:09.017Z,46.67
2022-08-16T23:10:40.048Z,47.72
2022-08-16T23:13:11.112Z,40.03
2022-08-16T23:15:45.356Z,38.03
2022-08-16T23:18:17.714Z,37.05
2022-08-16T23:20:48.143Z,55.45
2022-08-16T23:23:21.898Z,44.22
2022-08-16T23:25:56.127Z,39.80
2022-08-16T23:28:29.862Z,39.85
2022-08-16T23:31:00.499Z,40.35
2022-08-16T23:33:30.528Z,45.70
2022-08-16T23:36:02.115Z,40.88
2022-08-16T23:38:37.551Z,34.13
2022-08-16T23:41:12.269Z,38.33
2022-08-16T23:43:44.290Z,33.03
2022-08-16T23:46:17.432Z,35.30
2022-08-16T23:49:57.444Z,38.53
2022-08-16T23:51:37.642Z,43.70
2022-08-16T23:54:09.886Z,40.10
2022-08-16T23:56:40.989Z,39.15
2022-08-16T23:59:10.497Z,32.70
